Time;durP1;ratioP1;P1;durP2;ratioP2;P2;SDS_P1;SDS_P2;PMS_P1;PMS_P2;Temp;Humidity;BMP_temperature;BMP_pressure;BME280_temperature;BME280_humidity;BME280_pressure;Samples;Min_cycle;Max_cycle;Signal;HPM_P1;HPM_P2
2021/01/18 00:02:38;;;;;;;8.40;4.65;;;1.20;95.20;;;;;;5127113;27;27447;-48
2021/01/18 00:05:23;;;;;;;6.65;4.60;;;1.20;95.10;;;;;;5126522;27;27548;-47
2021/01/18 00:08:07;;;;;;;7.68;4.72;;;1.20;95.10;;;;;;5126765;27;27014;-48
2021/01/18 00:10:52;;;;;;;8.15;4.97;;;1.20;95.10;;;;;;5127222;27;27418;-47
2021/01/18 00:13:36;;;;;;;8.38;4.68;;;1.30;95.10;;;;;;5127160;27;27546;-51
2021/01/18 00:16:22;;;;;;;6.65;4.40;;;1.20;95.10;;;;;;5122741;27;27350;-47
2021/01/18 00:19:06;;;;;;;6.55;4.38;;;1.20;95.00;;;;;;5127203;27;27429;-47
2021/01/18 00:21:50;;;;;;;7.63;4.20;;;1.20;95.00;;;;;;5126759;27;27414;-49
2021/01/18 00:24:35;;;;;;;7.82;4.90;;;1.20;95.00;;;;;;5126305;27;27422;-48
2021/01/18 00:27:19;;;;;;;6.18;4.00;;;1.30;95.10;;;;;;5126613;27;27422;-49
2021/01/18 00:30:11;;;;;;;9.60;4.30;;;1.20;95.10;;;;;;5126657;27;27392;-50
2021/01/18 00:32:58;;;;;;;7.43;4.25;;;1.20;95.00;;;;;;5123573;27;27374;-48
2021/01/18 00:35:43;;;;;;;8.82;4.55;;;1.20;95.00;;;;;;5126611;27;27445;-49
2021/01/18 00:38:27;;;;;;;6.53;4.07;;;1.20;95.00;;;;;;5126600;27;27323;-48
2021/01/18 00:41:12;;;;;;;4.70;3.63;;;1.20;95.00;;;;;;5126815;27;27327;-48
2021/01/18 00:43:56;;;;;;;5.25;3.97;;;1.20;95.00;;;;;;5126759;27;27326;-49
2021/01/18 00:46:45;;;;;;;5.22;3.45;;;1.30;95.00;;;;;;5126298;27;27384;-48
2021/01/18 00:49:29;;;;;;;4.85;3.65;;;1.20;95.00;;;;;;5126797;27;27414;-48
2021/01/18 00:52:14;;;;;;;4.93;3.83;;;1.30;95.00;;;;;;5123165;27;27696;-49
2021/01/18 00:54:58;;;;;;;5.63;3.58;;;1.20;95.00;;;;;;5126508;27;27496;-48
2021/01/18 00:57:55;;;;;;;8.38;3.90;;;1.30;95.00;;;;;;5122922;27;27468;-46
2021/01/18 01:00:40;;;;;;;6.30;3.40;;;1.30;95.10;;;;;;5123179;27;27437;-49
2021/01/18 01:03:27;;;;;;;5.68;3.60;;;1.30;95.10;;;;;;5122384;27;27418;-50
2021/01/18 01:06:11;;;;;;;5.72;3.90;;;1.30;95.00;;;;;;5125545;27;27567;-49
2021/01/18 01:08:56;;;;;;;4.10;3.25;;;1.30;95.00;;;;;;5122826;27;27464;-49
2021/01/18 01:11:44;;;;;;;5.70;3.47;;;1.30;95.00;;;;;;5126329;27;27410;-49
2021/01/18 01:14:29;;;;;;;6.35;4.03;;;1.30;95.00;;;;;;5126042;27;27375;-48
2021/01/18 01:17:13;;;;;;;6.80;3.70;;;1.30;95.00;;;;;;5125419;27;27320;-49
2021/01/18 01:19:58;;;;;;;6.32;3.70;;;1.20;95.00;;;;;;5125532;27;27324;-49
2021/01/18 01:22:43;;;;;;;6.32;4.15;;;1.20;95.00;;;;;;5126235;27;27399;-50
2021/01/18 01:25:28;;;;;;;6.13;4.00;;;1.20;95.10;;;;;;5122765;27;27441;-49
2021/01/18 01:28:12;;;;;;;5.63;3.90;;;1.20;95.10;;;;;;5124484;27;27865;-49
2021/01/18 01:30:56;;;;;;;5.18;3.30;;;1.20;95.10;;;;;;5125959;27;27480;-48
2021/01/18 01:33:41;;;;;;;4.28;3.22;;;1.20;95.10;;;;;;5125789;27;27473;-48
2021/01/18 01:36:25;;;;;;;5.75;3.67;;;1.20;95.50;;;;;;5125923;27;27409;-50
2021/01/18 01:39:10;;;;;;;6.15;3.17;;;1.20;95.10;;;;;;5125835;27;27930;-50
2021/01/18 01:41:54;;;;;;;6.72;3.80;;;1.20;95.10;;;;;;5125504;27;27426;-48
2021/01/18 01:44:39;;;;;;;5.18;3.45;;;1.20;95.20;;;;;;5125535;27;27438;-49
2021/01/18 01:47:28;;;;;;;5.97;3.38;;;1.20;95.10;;;;;;5125019;27;27515;-49
2021/01/18 01:50:18;;;;;;;5.22;3.42;;;1.20;95.10;;;;;;5125715;27;27420;-50
2021/01/18 01:53:18;;;;;;;6.63;3.60;;;1.20;95.10;;;;;;5121658;27;27342;-50
2021/01/18 01:56:02;;;;;;;6.03;3.70;;;1.20;95.10;;;;;;5125465;27;27423;-49
2021/01/18 01:58:47;;;;;;;6.28;3.50;;;1.20;95.10;;;;;;5122305;27;27509;-48
2021/01/18 02:01:31;;;;;;;4.93;3.75;;;1.20;95.10;;;;;;5110078;27;27437;-48
2021/01/18 02:04:16;;;;;;;4.22;2.80;;;1.20;95.10;;;;;;5125267;27;27413;-49
2021/01/18 02:07:20;;;;;;;8.90;3.63;;;1.20;95.10;;;;;;5109430;27;27738;-48
2021/01/18 02:10:05;;;;;;;6.88;3.90;;;1.20;95.10;;;;;;5124768;27;27467;-47
2021/01/18 02:12:50;;;;;;;4.75;3.60;;;1.20;95.10;;;;;;5124644;27;27557;-49
2021/01/18 02:15:39;;;;;;;8.10;3.75;;;1.20;95.20;;;;;;5125030;27;27468;-48
2021/01/18 02:18:35;;;;;;;5.45;4.20;;;1.20;95.10;;;;;;5125097;27;27439;-49
2021/01/18 02:21:43;;;;;;;5.40;3.80;;;1.20;95.20;;;;;;5125425;27;27335;-48
2021/01/18 02:25:00;;;;;;;6.32;3.33;;;1.20;95.10;;;;;;5125232;27;27816;-48
2021/01/18 02:28:17;;;;;;;4.45;2.83;;;1.20;95.20;;;;;;5124977;27;27476;-48
2021/01/18 02:31:13;;;;;;;6.88;4.22;;;1.20;95.20;;;;;;5124965;27;27421;-47
2021/01/18 02:34:12;;;;;;;6.60;4.00;;;1.20;95.20;;;;;;5125158;27;27417;-48
2021/01/18 02:37:12;;;;;;;6.60;3.70;;;1.20;95.20;;;;;;5125145;27;27880;-49
2021/01/18 02:40:08;;;;;;;5.65;4.03;;;1.20;95.20;;;;;;5127332;27;27633;-45
2021/01/18 02:43:08;;;;;;;5.47;3.65;;;1.20;95.30;;;;;;5125493;27;27368;-48
2021/01/18 02:45:52;;;;;;;4.85;3.38;;;1.20;95.70;;;;;;5128386;27;27341;-48
2021/01/18 02:48:37;;;;;;;5.38;3.97;;;1.20;95.30;;;;;;5109475;27;27401;-47
2021/01/18 02:51:22;;;;;;;8.18;4.03;;;1.20;95.30;;;;;;5113069;27;27469;-47
2021/01/18 02:54:07;;;;;;;6.25;3.75;;;1.20;95.40;;;;;;5127611;27;27307;-48
2021/01/18 02:56:52;;;;;;;7.15;3.83;;;1.20;95.40;;;;;;5128567;27;27428;-47
2021/01/18 02:59:37;;;;;;;4.85;3.60;;;1.20;95.40;;;;;;5128158;27;27327;-47
2021/01/18 03:02:41;;;;;;;5.93;3.35;;;1.20;95.40;;;;;;5128405;27;27350;-48
2021/01/18 03:05:29;;;;;;;6.80;3.97;;;1.20;95.40;;;;;;5127143;27;27456;-48
2021/01/18 03:08:29;;;;;;;6.03;3.65;;;1.20;95.40;;;;;;5124569;27;27601;-47
2021/01/18 03:11:23;;;;;;;4.95;3.38;;;1.20;95.30;;;;;;5128143;27;27365;-47
2021/01/18 03:14:08;;;;;;;4.57;3.22;;;1.20;95.30;;;;;;5113125;27;27504;-47
2021/01/18 03:16:54;;;;;;;4.57;3.10;;;1.20;95.30;;;;;;5113143;27;27355;-47
2021/01/18 03:19:43;;;;;;;5.30;3.42;;;1.20;95.30;;;;;;5128160;27;27354;-48
2021/01/18 03:22:28;;;;;;;5.78;3.38;;;1.20;95.30;;;;;;5127788;27;27323;-48
2021/01/18 03:25:12;;;;;;;9.05;3.15;;;1.20;95.30;;;;;;5127731;27;27439;-49
2021/01/18 03:27:57;;;;;;;3.67;2.45;;;1.20;95.30;;;;;;5127511;27;27335;-47
2021/01/18 03:30:42;;;;;;;4.93;3.22;;;1.20;95.20;;;;;;5127756;27;27381;-47
2021/01/18 03:33:26;;;;;;;5.70;3.22;;;1.20;95.20;;;;;;5127888;27;27970;-48
2021/01/18 03:36:11;;;;;;;4.75;3.40;;;1.20;95.20;;;;;;5127259;27;27487;-48
2021/01/18 03:38:56;;;;;;;6.35;3.60;;;1.20;95.30;;;;;;5127638;27;27358;-48
2021/01/18 03:41:40;;;;;;;5.38;3.22;;;1.20;95.30;;;;;;5127834;27;27371;-47
2021/01/18 03:44:25;;;;;;;4.65;3.10;;;1.20;95.30;;;;;;5127418;27;27320;-47
2021/01/18 03:47:10;;;;;;;5.18;3.20;;;1.20;95.30;;;;;;5127585;27;27388;-48
2021/01/18 03:49:54;;;;;;;7.65;3.13;;;1.20;95.20;;;;;;5127602;27;27413;-48
2021/01/18 03:52:39;;;;;;;3.78;2.65;;;1.20;95.20;;;;;;5127056;27;27324;-47
2021/01/18 03:55:23;;;;;;;6.82;2.88;;;1.20;95.20;;;;;;5127163;27;27348;-48
2021/01/18 03:58:08;;;;;;;5.20;2.85;;;1.20;95.20;;;;;;5127468;27;27457;-46
2021/01/18 04:00:52;;;;;;;6.88;2.70;;;1.20;95.30;;;;;;5127503;27;27358;-47
2021/01/18 04:03:36;;;;;;;4.45;2.80;;;1.20;95.30;;;;;;5127102;27;27449;-47
2021/01/18 04:06:21;;;;;;;3.75;2.95;;;1.20;95.70;;;;;;5126585;27;27430;-49
2021/01/18 04:09:06;;;;;;;4.10;3.20;;;1.20;95.30;;;;;;5127038;27;27452;-48
2021/01/18 04:11:51;;;;;;;3.15;2.50;;;1.20;95.30;;;;;;5127094;27;27430;-47
2021/01/18 04:14:35;;;;;;;5.00;2.97;;;1.20;95.30;;;;;;5127037;27;27422;-47
2021/01/18 04:17:20;;;;;;;3.17;2.30;;;1.10;95.30;;;;;;5126905;27;27394;-47
2021/01/18 04:20:06;;;;;;;5.20;2.90;;;1.10;95.30;;;;;;5127187;27;27431;-47
2021/01/18 04:22:51;;;;;;;5.35;3.30;;;1.10;95.40;;;;;;5127209;27;27441;-47
2021/01/18 04:25:36;;;;;;;4.57;2.80;;;1.10;95.40;;;;;;5126854;27;27467;-47
2021/01/18 04:28:21;;;;;;;4.18;2.50;;;1.10;95.40;;;;;;5126479;27;27410;-46
2021/01/18 04:31:05;;;;;;;4.63;3.22;;;1.10;95.40;;;;;;5126298;27;27394;-46
2021/01/18 04:33:49;;;;;;;3.60;2.80;;;1.10;95.40;;;;;;5126691;27;27467;-46
2021/01/18 04:36:38;;;;;;;4.03;2.75;;;1.10;95.40;;;;;;5126952;27;27410;-45
2021/01/18 04:39:23;;;;;;;3.53;2.47;;;1.10;95.80;;;;;;5126846;27;27933;-47
2021/01/18 04:42:07;;;;;;;6.45;3.10;;;1.10;95.80;;;;;;5126483;27;27410;-48
2021/01/18 04:44:56;;;;;;;3.88;2.50;;;1.10;95.50;;;;;;5108050;27;27406;-47
2021/01/18 04:47:42;;;;;;;5.25;2.53;;;1.10;95.50;;;;;;5126301;27;27369;-47
2021/01/18 04:50:28;;;;;;;6.25;2.80;;;1.10;95.50;;;;;;5126409;27;27381;-47
2021/01/18 04:53:16;;;;;;;5.22;3.00;;;1.10;95.50;;;;;;5126338;27;27442;-47
2021/01/18 04:56:12;;;;;;;3.30;2.40;;;1.10;95.50;;;;;;5126616;27;27410;-47
2021/01/18 04:58:59;;;;;;;5.82;2.85;;;1.10;95.50;;;;;;5125304;27;27417;-47
2021/01/18 05:01:44;;;;;;;3.75;2.85;;;1.10;95.50;;;;;;5126479;27;27343;-47
2021/01/18 05:04:31;;;;;;;4.70;3.33;;;1.10;95.50;;;;;;5111254;27;27474;-44
2021/01/18 05:07:32;;;;;;;5.20;3.03;;;1.10;95.50;;;;;;5125550;27;27401;-46
2021/01/18 05:10:24;;;;;;;4.47;3.00;;;1.10;95.50;;;;;;5126405;27;27396;-46
2021/01/18 05:13:09;;;;;;;4.88;3.17;;;1.10;95.50;;;;;;5125290;27;27490;-47
2021/01/18 05:15:53;;;;;;;5.32;3.30;;;1.00;95.50;;;;;;5125238;27;27405;-47
2021/01/18 05:18:38;;;;;;;5.43;3.45;;;1.10;95.60;;;;;;5110781;27;27334;-47
2021/01/18 05:21:23;;;;;;;6.28;3.72;;;1.00;95.60;;;;;;5126249;27;27381;-47
2021/01/18 05:24:08;;;;;;;6.72;3.92;;;1.00;95.50;;;;;;5125113;27;27407;-47
2021/01/18 05:27:08;;;;;;;4.28;3.30;;;1.00;95.50;;;;;;5125619;27;27353;-47
2021/01/18 05:29:56;;;;;;;5.88;3.97;;;1.00;95.60;;;;;;5125822;27;27416;-47
2021/01/18 05:32:41;;;;;;;7.28;4.13;;;1.00;95.50;;;;;;5124975;27;27420;-47
2021/01/18 05:35:25;;;;;;;7.40;4.30;;;1.00;95.50;;;;;;5125964;27;27328;-47
2021/01/18 05:38:11;;;;;;;7.78;3.92;;;1.00;95.60;;;;;;5125696;27;27405;-46
2021/01/18 05:40:58;;;;;;;6.47;4.78;;;1.00;95.60;;;;;;5125680;27;27335;-47
2021/01/18 05:43:43;;;;;;;9.40;4.70;;;1.00;95.60;;;;;;5125829;27;27372;-47
2021/01/18 05:46:27;;;;;;;12.60;4.35;;;1.00;95.50;;;;;;5124701;27;27376;-47
2021/01/18 05:49:19;;;;;;;7.63;4.43;;;0.90;95.40;;;;;;5124736;27;27367;-49
2021/01/18 05:52:04;;;;;;;8.15;4.65;;;0.90;95.40;;;;;;5125454;27;27332;-48
2021/01/18 05:54:49;;;;;;;8.57;4.28;;;0.90;95.30;;;;;;5125034;27;27336;-47
2021/01/18 05:57:34;;;;;;;7.80;4.72;;;0.90;95.40;;;;;;5124611;27;27533;-47
2021/01/18 06:00:26;;;;;;;7.43;4.22;;;0.80;95.50;;;;;;5124814;27;27395;-50
2021/01/18 06:03:11;;;;;;;7.85;4.20;;;0.80;95.60;;;;;;5121194;27;27467;-47
2021/01/18 06:05:56;;;;;;;10.40;5.22;;;0.80;95.70;;;;;;5124828;27;27379;-48
2021/01/18 06:08:53;;;;;;;9.30;4.50;;;0.80;95.80;;;;;;5125151;27;27455;-49
2021/01/18 06:11:38;;;;;;;10.45;4.55;;;0.80;95.80;;;;;;5121295;27;27456;-51
2021/01/18 06:14:22;;;;;;;9.23;4.95;;;0.80;95.90;;;;;;5124129;27;27409;-47
2021/01/18 06:17:06;;;;;;;9.43;4.78;;;0.80;95.90;;;;;;5125080;27;27470;-48
2021/01/18 06:19:51;;;;;;;7.30;4.03;;;0.90;95.90;;;;;;5123645;27;27880;-47
2021/01/18 06:22:35;;;;;;;6.57;4.30;;;0.90;95.90;;;;;;5120885;27;27529;-47
2021/01/18 06:25:21;;;;;;;9.32;5.03;;;0.80;95.80;;;;;;5125017;27;27425;-47
2021/01/18 06:28:24;;;;;;;8.43;5.32;;;0.90;95.90;;;;;;5124735;27;27455;-47
2021/01/18 06:31:11;;;;;;;7.50;4.63;;;0.90;95.90;;;;;;5125195;27;27932;-48
2021/01/18 06:33:55;;;;;;;8.35;5.07;;;0.90;95.80;;;;;;5124767;27;27477;-49
2021/01/18 06:36:40;;;;;;;8.63;4.70;;;0.90;95.90;;;;;;5124799;27;27407;-48
2021/01/18 06:39:25;;;;;;;9.13;4.70;;;0.90;95.80;;;;;;5124115;27;27438;-49
2021/01/18 06:42:10;;;;;;;6.63;4.72;;;0.90;95.80;;;;;;5124691;27;27488;-48
2021/01/18 06:44:55;;;;;;;8.57;4.13;;;0.90;95.80;;;;;;5109751;27;27483;-50
2021/01/18 06:47:39;;;;;;;6.65;4.40;;;0.90;95.80;;;;;;5124225;27;27447;-49
2021/01/18 06:50:28;;;;;;;4.85;4.20;;;0.90;95.70;;;;;;5095475;27;27434;-47
2021/01/18 06:53:18;;;;;;;10.05;4.80;;;0.90;95.70;;;;;;5124551;27;27411;-50
2021/01/18 06:56:25;;;;;;;9.40;4.80;;;0.90;95.70;;;;;;5124680;27;27520;-49
2021/01/18 06:59:33;;;;;;;9.93;4.95;;;0.90;95.70;;;;;;5121555;27;27449;-46
2021/01/18 07:02:21;;;;;;;9.23;4.35;;;0.90;95.70;;;;;;5124851;27;27456;-48
2021/01/18 07:05:10;;;;;;;10.95;4.70;;;1.00;95.70;;;;;;5124467;27;27860;-45
2021/01/18 07:07:56;;;;;;;9.40;4.97;;;1.00;95.70;;;;;;5124579;27;27467;-53
2021/01/18 07:10:43;;;;;;;8.57;5.25;;;1.00;95.70;;;;;;5124706;27;26932;-49
2021/01/18 07:13:28;;;;;;;9.43;4.75;;;1.00;95.60;;;;;;5124022;27;27418;-49
2021/01/18 07:16:13;;;;;;;8.30;4.88;;;1.00;95.60;;;;;;5123881;27;27398;-49
2021/01/18 07:19:03;;;;;;;10.27;5.55;;;1.00;95.60;;;;;;5123595;27;27426;-48
2021/01/18 07:22:34;;;;;;;7.90;5.15;;;1.00;95.60;;;;;;5124669;27;27327;-49
2021/01/18 07:25:21;;;;;;;8.45;5.00;;;1.00;95.60;;;;;;5123301;27;27577;-51
2021/01/18 07:28:06;;;;;;;8.52;5.55;;;1.00;95.50;;;;;;5127477;27;27888;-45
2021/01/18 07:30:51;;;;;;;7.75;5.30;;;1.10;95.50;;;;;;5128042;27;27356;-51
2021/01/18 07:33:35;;;;;;;9.75;5.88;;;1.10;95.50;;;;;;5112486;27;27407;-51
2021/01/18 07:36:30;;;;;;;11.23;5.53;;;1.10;95.50;;;;;;5126919;27;27335;-47
2021/01/18 07:39:29;;;;;;;11.82;6.25;;;1.10;95.40;;;;;;5127528;27;27468;-47
2021/01/18 07:42:32;;;;;;;9.52;4.45;;;1.20;95.40;;;;;;5127473;27;27399;-48
2021/01/18 07:45:18;;;;;;;8.82;5.60;;;1.20;95.30;;;;;;5127609;27;27326;-51
2021/01/18 07:48:04;;;;;;;12.77;6.20;;;1.20;95.30;;;;;;5127572;27;27333;-46
2021/01/18 07:50:49;;;;;;;10.88;6.60;;;1.20;95.20;;;;;;5127710;27;27867;-49
2021/01/18 07:53:33;;;;;;;12.68;5.95;;;1.20;95.10;;;;;;5112482;27;27359;-47
2021/01/18 07:56:27;;;;;;;14.82;5.57;;;1.30;95.10;;;;;;5127673;27;27417;-50
2021/01/18 07:59:16;;;;;;;14.30;5.85;;;1.30;95.10;;;;;;5127302;27;27346;-49
2021/01/18 08:02:00;;;;;;;11.93;6.03;;;1.30;95.10;;;;;;5112336;27;27521;-51
2021/01/18 08:04:46;;;;;;;10.90;5.85;;;1.30;95.00;;;;;;5127170;27;27449;-50
2021/01/18 08:07:31;;;;;;;9.63;6.20;;;1.40;95.00;;;;;;5126576;27;27600;-49
2021/01/18 08:10:16;;;;;;;12.23;6.13;;;1.40;95.00;;;;;;5111912;27;27452;-49
2021/01/18 08:13:00;;;;;;;12.52;6.25;;;1.50;94.90;;;;;;5123238;27;27851;-50
2021/01/18 08:15:45;;;;;;;9.65;6.28;;;1.60;94.90;;;;;;5112026;27;27400;-50
2021/01/18 08:18:29;;;;;;;11.90;5.90;;;1.60;94.70;;;;;;5127288;27;27436;-50
2021/01/18 08:22:01;;;;;;;16.10;7.18;;;1.70;94.60;;;;;;5123665;27;27331;-52
2021/01/18 08:24:49;;;;;;;17.85;6.50;;;1.80;94.50;;;;;;5125741;27;27429;-48
2021/01/18 08:27:46;;;;;;;12.43;7.35;;;1.90;94.30;;;;;;5126829;27;27461;-52
2021/01/18 08:30:33;;;;;;;13.82;6.53;;;1.90;94.20;;;;;;5127101;27;27476;-51
2021/01/18 08:33:18;;;;;;;12.30;6.38;;;2.00;94.00;;;;;;5126423;27;27460;-50
2021/01/18 08:36:03;;;;;;;11.90;6.20;;;2.00;93.90;;;;;;5126687;27;27410;-51
2021/01/18 08:38:47;;;;;;;10.00;5.70;;;2.00;93.80;;;;;;5122432;27;27418;-48
2021/01/18 08:41:32;;;;;;;10.80;6.43;;;2.00;93.80;;;;;;5111442;27;27487;-48
2021/01/18 08:44:16;;;;;;;10.45;6.50;;;2.00;93.80;;;;;;5111266;27;27423;-49
2021/01/18 08:47:03;;;;;;;8.50;5.90;;;2.00;93.70;;;;;;5111118;27;27479;-47
2021/01/18 08:49:47;;;;;;;10.65;6.75;;;2.10;93.80;;;;;;5123376;27;27465;-48
2021/01/18 08:52:32;;;;;;;11.90;6.35;;;2.10;93.80;;;;;;5111216;27;27536;-45
2021/01/18 08:55:28;;;;;;;13.23;7.20;;;2.20;93.70;;;;;;5125955;27;27484;-51
2021/01/18 08:58:13;;;;;;;10.73;5.68;;;2.20;93.60;;;;;;5128514;27;27575;-47
2021/01/18 09:00:59;;;;;;;10.55;6.40;;;2.30;93.50;;;;;;5127889;27;27658;-48
2021/01/18 09:03:43;;;;;;;9.45;6.53;;;2.40;93.40;;;;;;5126839;27;27477;-49
2021/01/18 09:06:28;;;;;;;8.50;5.60;;;2.40;93.30;;;;;;5125787;27;27452;-50
2021/01/18 09:09:13;;;;;;;10.48;5.32;;;2.50;93.20;;;;;;5112075;27;28043;-49
2021/01/18 09:12:04;;;;;;;10.10;5.85;;;2.50;93.10;;;;;;5126299;27;27465;-48
2021/01/18 09:14:48;;;;;;;10.02;5.95;;;2.50;93.10;;;;;;5126364;27;27430;-49
2021/01/18 09:17:34;;;;;;;13.43;5.55;;;2.50;93.00;;;;;;5128456;27;27331;-48
2021/01/18 09:20:19;;;;;;;11.23;5.80;;;2.50;93.00;;;;;;5125991;27;27483;-50
2021/01/18 09:23:05;;;;;;;9.02;5.88;;;2.60;92.90;;;;;;5126039;27;27434;-50
2021/01/18 09:26:01;;;;;;;9.10;4.68;;;2.60;93.10;;;;;;5126224;27;27492;-50
2021/01/18 09:28:52;;;;;;;8.55;5.05;;;2.70;93.10;;;;;;5124293;27;27485;-50
2021/01/18 09:31:37;;;;;;;7.45;4.75;;;2.80;92.80;;;;;;5125474;27;27334;-48
2021/01/18 09:34:21;;;;;;;8.80;4.90;;;2.90;92.50;;;;;;5125690;27;27346;-49
2021/01/18 09:37:06;;;;;;;7.35;4.25;;;3.00;92.40;;;;;;5125979;27;27430;-50
2021/01/18 09:39:50;;;;;;;11.07;5.47;;;3.00;92.10;;;;;;5125611;27;27390;-52
2021/01/18 09:42:35;;;;;;;11.57;5.15;;;3.10;92.00;;;;;;5125831;27;27385;-50
2021/01/18 09:45:20;;;;;;;9.65;4.75;;;3.10;91.90;;;;;;5125873;27;27391;-45
2021/01/18 09:48:08;;;;;;;9.35;4.45;;;3.20;91.90;;;;;;5124205;27;27406;-48
2021/01/18 09:51:06;;;;;;;8.43;4.75;;;3.10;91.90;;;;;;5125791;27;27377;-52
2021/01/18 09:53:57;;;;;;;5.38;4.18;;;3.10;91.90;;;;;;5124813;27;27829;-49
2021/01/18 09:56:42;;;;;;;8.82;4.72;;;3.10;91.90;;;;;;5125669;27;27389;-48
2021/01/18 09:59:26;;;;;;;8.27;4.90;;;3.10;91.90;;;;;;5110243;27;27433;-51
2021/01/18 10:02:11;;;;;;;8.35;5.15;;;3.20;91.90;;;;;;5124604;27;27334;-49
2021/01/18 10:04:56;;;;;;;7.25;4.35;;;3.30;91.80;;;;;;5124855;27;27422;-50
2021/01/18 10:07:45;;;;;;;8.82;4.35;;;3.30;91.60;;;;;;5110240;27;27402;-52
2021/01/18 10:10:49;;;;;;;6.82;4.18;;;3.50;91.50;;;;;;5124701;27;27447;-55
2021/01/18 10:13:34;;;;;;;7.18;4.68;;;3.50;91.30;;;;;;5125452;27;27406;-55
2021/01/18 10:16:19;;;;;;;9.27;4.97;;;3.60;91.00;;;;;;5124616;27;27450;-56
2021/01/18 10:19:16;;;;;;;7.60;4.70;;;3.70;90.90;;;;;;5125361;27;27409;-55
2021/01/18 10:22:02;;;;;;;6.90;4.30;;;3.90;90.70;;;;;;5124650;27;27453;-54
2021/01/18 10:24:56;;;;;;;6.88;4.25;;;4.10;90.30;;;;;;5124969;27;27415;-51
2021/01/18 10:27:49;;;;;;;9.00;4.55;;;4.20;90.00;;;;;;5124862;27;27421;-52
2021/01/18 10:30:35;;;;;;;7.22;4.55;;;4.40;89.40;;;;;;5125213;27;27492;-53
2021/01/18 10:33:19;;;;;;;9.05;4.57;;;4.50;88.60;;;;;;5124981;27;27443;-53
2021/01/18 10:36:04;;;;;;;6.10;4.55;;;4.60;88.20;;;;;;5125148;27;27537;-51
2021/01/18 10:38:49;;;;;;;7.70;5.30;;;4.80;87.60;;;;;;5124802;27;27494;-46
2021/01/18 10:41:34;;;;;;;7.50;4.88;;;4.80;87.20;;;;;;5124746;27;27420;-53
2021/01/18 10:44:22;;;;;;;6.53;4.47;;;4.90;86.90;;;;;;5124812;27;27336;-50
2021/01/18 10:47:06;;;;;;;7.55;4.47;;;4.90;86.80;;;;;;5125007;27;27461;-50
2021/01/18 10:50:00;;;;;;;6.78;4.15;;;5.00;86.90;;;;;;5124123;27;27476;-49
2021/01/18 10:52:45;;;;;;;10.90;5.47;;;5.00;86.40;;;;;;5124933;27;27422;-49
2021/01/18 10:55:29;;;;;;;8.02;4.53;;;5.10;86.40;;;;;;5124965;27;27441;-50
2021/01/18 10:58:28;;;;;;;7.03;4.13;;;5.10;86.10;;;;;;5121334;27;27358;-48
2021/01/18 11:01:13;;;;;;;7.55;4.53;;;5.10;86.20;;;;;;5127405;27;27478;-49
2021/01/18 11:04:05;;;;;;;5.40;3.65;;;5.10;86.20;;;;;;5128396;27;27419;-50
2021/01/18 11:06:49;;;;;;;6.28;3.88;;;5.00;86.40;;;;;;5126737;27;27437;-49
2021/01/18 11:09:34;;;;;;;10.05;4.80;;;5.00;87.20;;;;;;5113134;27;27383;-49
2021/01/18 11:12:19;;;;;;;5.80;4.20;;;5.00;86.50;;;;;;5128238;27;27331;-50
2021/01/18 11:15:13;;;;;;;6.65;4.43;;;5.00;86.50;;;;;;5127175;27;27405;-48
2021/01/18 11:17:57;;;;;;;8.25;4.00;;;5.10;86.80;;;;;;5123852;27;27369;-53
2021/01/18 11:20:45;;;;;;;4.95;3.55;;;5.20;86.60;;;;;;5128179;27;27369;-51
2021/01/18 11:23:30;;;;;;;8.18;4.13;;;5.30;86.30;;;;;;5124705;27;27390;-49
2021/01/18 11:26:15;;;;;;;5.47;3.58;;;5.40;86.00;;;;;;5128005;27;27465;-49
2021/01/18 11:28:59;;;;;;;7.55;4.32;;;5.50;85.60;;;;;;5127713;27;27496;-49
2021/01/18 11:31:44;;;;;;;5.30;3.88;;;5.50;85.20;;;;;;5127723;27;27336;-48
2021/01/18 11:34:29;;;;;;;6.70;4.15;;;5.60;85.10;;;;;;5127928;27;27373;-49
2021/01/18 11:37:14;;;;;;;8.18;4.45;;;5.70;84.60;;;;;;5127657;27;27331;-49
2021/01/18 11:39:58;;;;;;;8.43;4.15;;;5.80;84.30;;;;;;5127617;27;27320;-48
2021/01/18 11:42:42;;;;;;;6.82;4.20;;;5.90;84.30;;;;;;5127235;27;27359;-48
2021/01/18 11:45:27;;;;;;;5.82;3.75;;;6.00;83.80;;;;;;5127585;27;27323;-49
2021/01/18 11:48:12;;;;;;;7.32;4.20;;;6.10;83.40;;;;;;5127423;27;27390;-44
2021/01/18 11:50:57;;;;;;;5.22;3.72;;;6.20;83.10;;;;;;5123666;27;27319;-50
2021/01/18 11:53:42;;;;;;;5.78;3.55;;;6.20;83.00;;;;;;5127388;27;27373;-48
2021/01/18 11:56:32;;;;;;;5.30;3.83;;;6.30;82.70;;;;;;5126503;27;27339;-49
2021/01/18 11:59:17;;;;;;;7.93;3.78;;;6.40;82.60;;;;;;5127490;27;27472;-48
2021/01/18 12:02:02;;;;;;;5.18;3.78;;;6.50;82.40;;;;;;5127455;27;27472;-47
2021/01/18 12:04:46;;;;;;;4.75;3.35;;;6.60;82.10;;;;;;5127383;27;27441;-47
2021/01/18 12:07:33;;;;;;;6.35;3.47;;;6.60;81.80;;;;;;5126936;27;27471;-48
2021/01/18 12:10:17;;;;;;;4.97;3.78;;;6.60;81.80;;;;;;5126514;27;27449;-48
2021/01/18 12:13:05;;;;;;;5.32;3.40;;;6.70;81.80;;;;;;5123206;27;27440;-49
2021/01/18 12:15:49;;;;;;;6.63;3.63;;;6.70;81.50;;;;;;5126978;27;27385;-46
2021/01/18 12:18:34;;;;;;;5.20;3.60;;;6.80;81.30;;;;;;5127063;27;27407;-49
2021/01/18 12:21:19;;;;;;;8.52;4.13;;;6.80;81.10;;;;;;5127099;27;27434;-49
2021/01/18 12:24:04;;;;;;;7.70;4.00;;;6.80;81.30;;;;;;5127060;27;27434;-48
2021/01/18 12:26:53;;;;;;;4.22;3.50;;;6.80;81.00;;;;;;5126606;27;27522;-48
2021/01/18 12:29:37;;;;;;;5.70;3.95;;;6.90;81.00;;;;;;5126677;27;27385;-50
2021/01/18 12:32:22;;;;;;;7.90;3.80;;;6.90;80.80;;;;;;5126860;27;27405;-49
2021/01/18 12:35:07;;;;;;;7.88;4.45;;;6.90;80.90;;;;;;5126576;27;27399;-50
2021/01/18 12:37:52;;;;;;;4.28;3.30;;;6.90;81.00;;;;;;5126352;27;27382;-49
2021/01/18 12:40:36;;;;;;;7.45;3.78;;;6.80;81.10;;;;;;5126720;27;27370;-48
2021/01/18 12:43:21;;;;;;;7.85;4.07;;;6.80;81.20;;;;;;5126409;27;27374;-49
2021/01/18 12:46:05;;;;;;;5.47;3.88;;;7.00;81.00;;;;;;5126413;27;27332;-49
2021/01/18 12:48:50;;;;;;;5.10;3.55;;;7.10;80.70;;;;;;5125981;27;27381;-47
2021/01/18 12:51:35;;;;;;;8.07;3.47;;;7.10;80.30;;;;;;5126514;27;27322;-48
2021/01/18 12:54:20;;;;;;;6.30;3.53;;;7.20;80.20;;;;;;5122295;27;27322;-48
2021/01/18 12:57:05;;;;;;;3.60;3.05;;;7.20;80.00;;;;;;5126447;27;27397;-50
2021/01/18 12:59:49;;;;;;;5.93;3.70;;;7.20;80.00;;;;;;5126370;27;27453;-49
2021/01/18 13:02:37;;;;;;;6.22;3.55;;;7.20;80.00;;;;;;5126316;27;27974;-49
2021/01/18 13:05:22;;;;;;;6.80;3.63;;;7.10;80.90;;;;;;5125022;27;27613;-46
2021/01/18 13:08:06;;;;;;;4.72;3.33;;;7.10;80.20;;;;;;5121900;27;27371;-48
2021/01/18 13:10:59;;;;;;;7.40;3.55;;;7.10;80.30;;;;;;5126465;27;27326;-50
2021/01/18 13:13:44;;;;;;;9.98;3.67;;;7.10;80.50;;;;;;5122289;27;27847;-51
2021/01/18 13:16:28;;;;;;;10.63;4.75;;;7.10;80.40;;;;;;5125996;27;27435;-49
2021/01/18 13:19:14;;;;;;;5.57;3.75;;;7.10;80.20;;;;;;5126099;27;27496;-50
2021/01/18 13:21:58;;;;;;;4.40;3.13;;;7.20;79.90;;;;;;5125894;27;27460;-49
2021/01/18 13:24:42;;;;;;;5.78;3.88;;;7.30;79.70;;;;;;5124848;27;27879;-48
2021/01/18 13:27:29;;;;;;;6.75;4.05;;;7.30;79.60;;;;;;5125916;27;27407;-50
2021/01/18 13:30:14;;;;;;;7.40;3.72;;;7.20;79.70;;;;;;5126104;27;27402;-50
2021/01/18 13:32:58;;;;;;;7.78;3.88;;;7.10;80.10;;;;;;5125994;27;27457;-52
2021/01/18 13:35:43;;;;;;;4.05;3.53;;;7.00;80.40;;;;;;5125297;27;27903;-52
2021/01/18 13:38:28;;;;;;;6.65;4.10;;;6.90;80.70;;;;;;5125443;27;27457;-49
2021/01/18 13:41:14;;;;;;;5.05;3.30;;;6.80;80.90;;;;;;5121562;27;27430;-48
2021/01/18 13:43:58;;;;;;;7.25;4.43;;;6.80;81.30;;;;;;5125461;27;27534;-49
2021/01/18 13:46:46;;;;;;;8.77;4.05;;;6.70;81.40;;;;;;5125403;27;27392;-48
2021/01/18 13:49:31;;;;;;;7.40;4.13;;;6.70;81.60;;;;;;5125678;27;27385;-53
2021/01/18 13:52:15;;;;;;;8.52;4.63;;;6.60;82.00;;;;;;5125739;27;27417;-47
2021/01/18 13:55:00;;;;;;;8.60;5.57;;;6.50;82.40;;;;;;5125327;27;27386;-50
2021/01/18 13:57:45;;;;;;;10.43;5.15;;;6.40;82.70;;;;;;5121865;27;27335;-50
2021/01/18 14:00:30;;;;;;;9.82;5.28;;;6.30;82.90;;;;;;5125677;27;27426;-48
2021/01/18 14:03:14;;;;;;;10.55;6.20;;;6.30;83.10;;;;;;5125075;27;27405;-51
2021/01/18 14:05:59;;;;;;;11.15;5.78;;;6.20;83.20;;;;;;5124981;27;27395;-47
2021/01/18 14:08:43;;;;;;;10.35;5.55;;;6.20;83.40;;;;;;5125289;27;28068;-48
2021/01/18 14:11:31;;;;;;;10.65;5.45;;;6.10;83.70;;;;;;5125344;27;27432;-47
2021/01/18 14:14:16;;;;;;;12.27;5.88;;;6.00;83.70;;;;;;5125218;27;27409;-47
2021/01/18 14:17:01;;;;;;;11.05;5.80;;;6.00;84.00;;;;;;5125189;27;27317;-49
2021/01/18 14:19:46;;;;;;;12.80;5.82;;;5.90;84.10;;;;;;5125042;27;27355;-49
2021/01/18 14:22:30;;;;;;;14.77;6.55;;;5.80;84.20;;;;;;5121170;27;27368;-47
2021/01/18 14:25:15;;;;;;;13.48;6.30;;;5.80;84.50;;;;;;5124991;27;27449;-49
2021/01/18 14:28:00;;;;;;;10.25;5.93;;;5.70;84.60;;;;;;5124818;27;27401;-47
2021/01/18 14:30:44;;;;;;;12.50;6.45;;;5.60;84.70;;;;;;5124538;27;27402;-49
2021/01/18 14:33:29;;;;;;;10.68;5.45;;;5.60;85.00;;;;;;5125165;27;27479;-47
2021/01/18 14:36:15;;;;;;;12.38;5.95;;;5.50;85.30;;;;;;5127699;27;27465;-49
2021/01/18 14:39:00;;;;;;;11.02;6.18;;;5.50;85.50;;;;;;5128623;27;27380;-49
2021/01/18 14:41:46;;;;;;;9.13;5.30;;;5.40;85.60;;;;;;5128532;27;27895;-49